sensor_id;sensor_type;location;lat;lon;timestamp;pressure;altitude;pressure_sealevel;temperature;humidity
51460;BME280;37534;39.772;2.718;2023-02-15T00:01:35;102788.13;;;6.38;100.00
51460;BME280;37534;39.772;2.718;2023-02-15T00:04:01;102785.06;;;6.18;100.00
51460;BME280;37534;39.772;2.718;2023-02-15T00:06:27;102755.63;;;6.04;100.00
51460;BME280;37534;39.772;2.718;2023-02-15T00:08:53;102776.03;;;6.34;100.00
51460;BME280;37534;39.772;2.718;2023-02-15T00:11:19;102767.13;;;6.18;100.00
51460;BME280;37534;39.772;2.718;2023-02-15T00:14:22;102782.28;;;6.11;100.00
51460;BME280;37534;39.772;2.718;2023-02-15T00:16:50;102779.81;;;6.14;100.00
51460;BME280;37534;39.772;2.718;2023-02-15T00:19:17;102748.53;;;5.94;100.00
51460;BME280;37534;39.772;2.718;2023-02-15T00:21:43;102739.94;;;5.92;100.00
51460;BME280;37534;39.772;2.718;2023-02-15T00:24:11;102760.75;;;6.04;100.00
51460;BME280;37534;39.772;2.718;2023-02-15T00:26:39;102757.22;;;5.99;100.00
51460;BME280;37534;39.772;2.718;2023-02-15T00:29:05;102755.63;;;6.04;100.00
51460;BME280;37534;39.772;2.718;2023-02-15T00:31:32;102757.88;;;5.93;100.00
51460;BME280;37534;39.772;2.718;2023-02-15T00:34:12;102741.91;;;6.02;100.00
51460;BME280;37534;39.772;2.718;2023-02-15T00:36:38;102746.63;;;5.88;100.00
51460;BME280;37534;39.772;2.718;2023-02-15T00:39:04;102745.06;;;5.92;100.00
51460;BME280;37534;39.772;2.718;2023-02-15T00:41:31;102736.97;;;5.76;100.00
51460;BME280;37534;39.772;2.718;2023-02-15T00:43:56;102736.28;;;5.83;100.00
51460;BME280;37534;39.772;2.718;2023-02-15T00:46:22;102742.50;;;5.92;100.00
51460;BME280;37534;39.772;2.718;2023-02-15T00:48:48;102743.13;;;5.83;100.00
51460;BME280;37534;39.772;2.718;2023-02-15T00:51:13;102738.97;;;5.88;100.00
51460;BME280;37534;39.772;2.718;2023-02-15T00:53:39;102726.16;;;5.88;100.00
51460;BME280;37534;39.772;2.718;2023-02-15T00:56:05;102707.72;;;5.68;100.00
51460;BME280;37534;39.772;2.718;2023-02-15T00:58:30;102735.88;;;5.68;100.00
51460;BME280;37534;39.772;2.718;2023-02-15T01:01:09;102746.03;;;5.65;100.00
51460;BME280;37534;39.772;2.718;2023-02-15T01:03:34;102721.84;;;5.53;100.00
51460;BME280;37534;39.772;2.718;2023-02-15T01:06:00;102742.41;;;5.57;100.00
51460;BME280;37534;39.772;2.718;2023-02-15T01:08:26;102718.69;;;5.32;100.00
51460;BME280;37534;39.772;2.718;2023-02-15T01:10:52;102727.16;;;5.29;100.00
51460;BME280;37534;39.772;2.718;2023-02-15T01:13:18;102728.78;;;5.58;100.00
51460;BME280;37534;39.772;2.718;2023-02-15T01:15:44;102723.50;;;5.51;100.00
51460;BME280;37534;39.772;2.718;2023-02-15T01:18:10;102723.09;;;5.38;100.00
51460;BME280;37534;39.772;2.718;2023-02-15T01:20:38;102742.16;;;5.47;100.00
51460;BME280;37534;39.772;2.718;2023-02-15T01:23:06;102712.63;;;5.28;100.00
51460;BME280;37534;39.772;2.718;2023-02-15T01:25:33;102702.25;;;5.24;100.00
51460;BME280;37534;39.772;2.718;2023-02-15T01:27:59;102712.72;;;5.31;100.00
51460;BME280;37534;39.772;2.718;2023-02-15T01:30:25;102716.84;;;5.26;100.00
51460;BME280;37534;39.772;2.718;2023-02-15T01:32:51;102739.41;;;5.41;100.00
51460;BME280;37534;39.772;2.718;2023-02-15T01:35:16;102705.50;;;5.18;100.00
51460;BME280;37534;39.772;2.718;2023-02-15T01:37:42;102723.06;;;5.36;100.00
51460;BME280;37534;39.772;2.718;2023-02-15T01:40:12;102726.97;;;5.53;100.00
51460;BME280;37534;39.772;2.718;2023-02-15T01:42:38;102736.13;;;5.45;100.00
51460;BME280;37534;39.772;2.718;2023-02-15T01:45:18;102717.44;;;5.18;100.00
51460;BME280;37534;39.772;2.718;2023-02-15T01:47:51;102709.50;;;5.08;100.00
51460;BME280;37534;39.772;2.718;2023-02-15T01:50:25;102695.41;;;4.92;100.00
51460;BME280;37534;39.772;2.718;2023-02-15T01:53:01;102738.03;;;5.22;100.00
51460;BME280;37534;39.772;2.718;2023-02-15T01:55:33;102715.69;;;5.17;100.00
51460;BME280;37534;39.772;2.718;2023-02-15T01:58:00;102719.34;;;5.25;100.00
51460;BME280;37534;39.772;2.718;2023-02-15T02:00:26;102720.34;;;5.30;100.00
51460;BME280;37534;39.772;2.718;2023-02-15T02:02:53;102724.97;;;5.13;100.00
51460;BME280;37534;39.772;2.718;2023-02-15T02:05:20;102692.78;;;4.91;100.00
51460;BME280;37534;39.772;2.718;2023-02-15T02:07:48;102720.09;;;4.92;100.00
51460;BME280;37534;39.772;2.718;2023-02-15T02:10:19;102700.91;;;4.78;100.00
51460;BME280;37534;39.772;2.718;2023-02-15T02:12:49;102702.56;;;4.75;100.00
51460;BME280;37534;39.772;2.718;2023-02-15T02:15:16;102686.94;;;4.66;100.00
51460;BME280;37534;39.772;2.718;2023-02-15T02:17:47;102712.09;;;4.81;100.00
51460;BME280;37534;39.772;2.718;2023-02-15T02:31:17;102688.22;;;4.81;100.00
51460;BME280;37534;39.772;2.718;2023-02-15T02:34:51;102684.13;;;4.86;100.00
51460;BME280;37534;39.772;2.718;2023-02-15T02:37:34;102687.16;;;4.74;100.00
51460;BME280;37534;39.772;2.718;2023-02-15T02:42:41;102675.22;;;4.46;100.00
51460;BME280;37534;39.772;2.718;2023-02-15T02:45:13;102667.38;;;4.40;100.00
51460;BME280;37534;39.772;2.718;2023-02-15T02:47:47;102637.84;;;4.21;100.00
51460;BME280;37534;39.772;2.718;2023-02-15T02:50:18;102649.84;;;4.23;100.00
51460;BME280;37534;39.772;2.718;2023-02-15T02:52:51;102626.53;;;4.12;100.00
51460;BME280;37534;39.772;2.718;2023-02-15T02:55:30;102653.50;;;4.31;100.00
51460;BME280;37534;39.772;2.718;2023-02-15T03:00:41;102649.13;;;4.27;100.00
51460;BME280;37534;39.772;2.718;2023-02-15T03:03:13;102639.28;;;4.40;100.00
51460;BME280;37534;39.772;2.718;2023-02-15T03:05:44;102664.53;;;4.57;100.00
51460;BME280;37534;39.772;2.718;2023-02-15T03:08:13;102667.38;;;4.40;100.00
51460;BME280;37534;39.772;2.718;2023-02-15T03:10:48;102655.34;;;4.35;100.00
51460;BME280;37534;39.772;2.718;2023-02-15T03:13:15;102654.22;;;4.27;100.00
51460;BME280;37534;39.772;2.718;2023-02-15T03:15:43;102630.44;;;4.28;100.00
51460;BME280;37534;39.772;2.718;2023-02-15T03:18:45;102634.53;;;4.23;100.00
51460;BME280;37534;39.772;2.718;2023-02-15T03:21:21;102639.25;;;4.11;100.00
51460;BME280;37534;39.772;2.718;2023-02-15T03:24:03;102627.78;;;3.98;100.00
51460;BME280;37534;39.772;2.718;2023-02-15T03:26:30;102649.69;;;4.18;100.00
51460;BME280;37534;39.772;2.718;2023-02-15T03:28:59;102620.63;;;4.15;100.00
51460;BME280;37534;39.772;2.718;2023-02-15T03:31:28;102630.09;;;4.17;100.00
51460;BME280;37534;39.772;2.718;2023-02-15T03:34:00;102625.63;;;4.12;100.00
51460;BME280;37534;39.772;2.718;2023-02-15T03:41:34;102620.47;;;4.10;100.00
51460;BME280;37534;39.772;2.718;2023-02-15T03:44:11;102606.09;;;4.12;100.00
51460;BME280;37534;39.772;2.718;2023-02-15T03:47:13;102645.69;;;4.54;100.00
51460;BME280;37534;39.772;2.718;2023-02-15T03:50:03;102624.16;;;4.47;100.00
51460;BME280;37534;39.772;2.718;2023-02-15T03:52:30;102620.16;;;4.27;100.00
51460;BME280;37534;39.772;2.718;2023-02-15T03:54:58;102635.28;;;4.21;100.00
51460;BME280;37534;39.772;2.718;2023-02-15T03:57:25;102632.78;;;4.22;100.00
51460;BME280;37534;39.772;2.718;2023-02-15T04:00:16;102629.09;;;4.14;100.00
51460;BME280;37534;39.772;2.718;2023-02-15T04:05:35;102616.88;;;4.04;100.00
51460;BME280;37534;39.772;2.718;2023-02-15T04:08:02;102619.63;;;4.10;100.00
51460;BME280;37534;39.772;2.718;2023-02-15T04:10:27;102601.47;;;4.00;100.00
51460;BME280;37534;39.772;2.718;2023-02-15T04:13:12;102594.41;;;3.93;100.00
51460;BME280;37534;39.772;2.718;2023-02-15T04:15:37;102602.25;;;3.99;100.00
51460;BME280;37534;39.772;2.718;2023-02-15T04:18:22;102639.53;;;4.20;100.00
51460;BME280;37534;39.772;2.718;2023-02-15T04:21:05;102631.91;;;4.22;100.00
51460;BME280;37534;39.772;2.718;2023-02-15T04:23:49;102615.34;;;4.09;100.00
51460;BME280;37534;39.772;2.718;2023-02-15T04:26:33;102634.69;;;4.29;100.00
51460;BME280;37534;39.772;2.718;2023-02-15T04:28:59;102628.78;;;4.30;100.00
51460;BME280;37534;39.772;2.718;2023-02-15T04:31:25;102620.63;;;4.15;100.00
51460;BME280;37534;39.772;2.718;2023-02-15T04:33:50;102637.59;;;4.13;100.00
51460;BME280;37534;39.772;2.718;2023-02-15T04:36:16;102578.88;;;3.87;100.00
51460;BME280;37534;39.772;2.718;2023-02-15T04:38:41;102608.31;;;4.02;100.00
51460;BME280;37534;39.772;2.718;2023-02-15T04:41:07;102624.19;;;4.20;100.00
51460;BME280;37534;39.772;2.718;2023-02-15T04:43:33;102617.28;;;4.16;100.00
51460;BME280;37534;39.772;2.718;2023-02-15T04:45:58;102625.56;;;4.09;100.00
51460;BME280;37534;39.772;2.718;2023-02-15T04:48:27;102608.00;;;3.92;100.00
51460;BME280;37534;39.772;2.718;2023-02-15T04:50:52;102606.00;;;3.84;100.00
51460;BME280;37534;39.772;2.718;2023-02-15T04:53:18;102617.91;;;3.83;100.00
51460;BME280;37534;39.772;2.718;2023-02-15T04:55:44;102637.72;;;3.90;100.00
51460;BME280;37534;39.772;2.718;2023-02-15T04:58:09;102605.78;;;3.76;100.00
51460;BME280;37534;39.772;2.718;2023-02-15T05:00:35;102635.91;;;3.86;100.00
51460;BME280;37534;39.772;2.718;2023-02-15T05:03:01;102616.34;;;3.87;100.00
51460;BME280;37534;39.772;2.718;2023-02-15T05:05:26;102634.88;;;3.81;100.00
51460;BME280;37534;39.772;2.718;2023-02-15T05:07:52;102627.03;;;3.75;100.00
51460;BME280;37534;39.772;2.718;2023-02-15T05:10:17;102621.88;;;3.73;100.00
51460;BME280;37534;39.772;2.718;2023-02-15T05:12:43;102609.81;;;3.69;100.00
51460;BME280;37534;39.772;2.718;2023-02-15T05:15:09;102617.53;;;3.71;100.00
51460;BME280;37534;39.772;2.718;2023-02-15T05:17:34;102612.34;;;3.69;100.00
51460;BME280;37534;39.772;2.718;2023-02-15T05:20:00;102590.56;;;3.53;100.00
51460;BME280;37534;39.772;2.718;2023-02-15T05:22:25;102591.69;;;3.61;100.00
51460;BME280;37534;39.772;2.718;2023-02-15T05:24:51;102570.13;;;3.52;100.00
51460;BME280;37534;39.772;2.718;2023-02-15T05:27:35;102617.41;;;3.68;100.00
51460;BME280;37534;39.772;2.718;2023-02-15T05:30:19;102587.41;;;3.60;100.00
51460;BME280;37534;39.772;2.718;2023-02-15T05:32:45;102595.94;;;3.61;100.00
51460;BME280;37534;39.772;2.718;2023-02-15T05:35:14;102609.44;;;3.58;100.00
51460;BME280;37534;39.772;2.718;2023-02-15T05:37:40;102623.66;;;3.50;100.00
51460;BME280;37534;39.772;2.718;2023-02-15T05:40:08;102584.75;;;3.32;100.00
51460;BME280;37534;39.772;2.718;2023-02-15T05:42:33;102619.03;;;3.66;100.00
51460;BME280;37534;39.772;2.718;2023-02-15T05:44:59;102595.66;;;3.52;100.00
51460;BME280;37534;39.772;2.718;2023-02-15T05:47:25;102561.59;;;3.26;100.00
51460;BME280;37534;39.772;2.718;2023-02-15T05:49:50;102589.53;;;3.48;100.00
51460;BME280;37534;39.772;2.718;2023-02-15T05:52:16;102621.34;;;3.58;100.00
51460;BME280;37534;39.772;2.718;2023-02-15T05:54:41;102601.81;;;3.33;100.00
51460;BME280;37534;39.772;2.718;2023-02-15T05:57:07;102623.00;;;3.56;100.00
51460;BME280;37534;39.772;2.718;2023-02-15T05:59:32;102613.34;;;3.47;100.00
51460;BME280;37534;39.772;2.718;2023-02-15T06:01:58;102597.06;;;3.43;100.00
51460;BME280;37534;39.772;2.718;2023-02-15T06:04:23;102616.25;;;3.58;100.00
51460;BME280;37534;39.772;2.718;2023-02-15T06:06:49;102604.00;;;3.48;100.00
51460;BME280;37534;39.772;2.718;2023-02-15T06:09:15;102596.09;;;3.40;100.00
51460;BME280;37534;39.772;2.718;2023-02-15T06:11:44;102627.84;;;3.74;100.00
51460;BME280;37534;39.772;2.718;2023-02-15T06:14:10;102608.03;;;3.67;100.00
51460;BME280;37534;39.772;2.718;2023-02-15T06:16:35;102596.50;;;3.52;100.00
51460;BME280;37534;39.772;2.718;2023-02-15T06:19:02;102635.81;;;3.57;100.00
51460;BME280;37534;39.772;2.718;2023-02-15T06:21:28;102592.75;;;3.42;100.00
51460;BME280;37534;39.772;2.718;2023-02-15T06:23:53;102620.09;;;3.45;100.00
51460;BME280;37534;39.772;2.718;2023-02-15T06:26:19;102581.81;;;3.21;100.00
51460;BME280;37534;39.772;2.718;2023-02-15T06:28:47;102634.16;;;3.59;100.00
51460;BME280;37534;39.772;2.718;2023-02-15T06:31:13;102603.31;;;3.53;100.00
51460;BME280;37534;39.772;2.718;2023-02-15T06:33:38;102631.13;;;3.70;100.00
51460;BME280;37534;39.772;2.718;2023-02-15T06:36:04;102653.78;;;3.86;100.00
51460;BME280;37534;39.772;2.718;2023-02-15T06:38:30;102659.50;;;3.79;100.00
51460;BME280;37534;39.772;2.718;2023-02-15T06:40:56;102632.53;;;3.61;100.00
51460;BME280;37534;39.772;2.718;2023-02-15T06:43:21;102646.44;;;3.70;100.00
51460;BME280;37534;39.772;2.718;2023-02-15T06:45:47;102631.13;;;3.70;100.00
51460;BME280;37534;39.772;2.718;2023-02-15T06:48:13;102655.00;;;3.72;100.00
51460;BME280;37534;39.772;2.718;2023-02-15T06:50:39;102669.91;;;3.85;100.00
51460;BME280;37534;39.772;2.718;2023-02-15T06:53:05;102632.19;;;3.51;100.00
51460;BME280;37534;39.772;2.718;2023-02-15T06:55:31;102659.22;;;3.71;100.00
51460;BME280;37534;39.772;2.718;2023-02-15T06:57:56;102647.28;;;3.70;100.00
51460;BME280;37534;39.772;2.718;2023-02-15T07:00:22;102627.69;;;3.69;100.00
51460;BME280;37534;39.772;2.718;2023-02-15T07:02:56;102628.66;;;3.73;100.00
51460;BME280;37534;39.772;2.718;2023-02-15T07:05:23;102651.00;;;3.80;100.00
51460;BME280;37534;39.772;2.718;2023-02-15T07:07:49;102672.81;;;3.96;100.00
51460;BME280;37534;39.772;2.718;2023-02-15T07:10:15;102661.97;;;4.03;100.00
51460;BME280;37534;39.772;2.718;2023-02-15T07:12:40;102660.31;;;4.04;100.00
51460;BME280;37534;39.772;2.718;2023-02-15T07:15:15;102662.03;;;4.05;100.00
51460;BME280;37534;39.772;2.718;2023-02-15T07:17:41;102680.41;;;4.20;100.00
51460;BME280;37534;39.772;2.718;2023-02-15T07:20:13;102671.84;;;4.18;100.00
51460;BME280;37534;39.772;2.718;2023-02-15T07:22:39;102674.78;;;4.30;100.00
51460;BME280;37534;39.772;2.718;2023-02-15T07:25:07;102676.13;;;4.46;100.00
51460;BME280;37534;39.772;2.718;2023-02-15T07:27:33;102654.66;;;4.41;100.00
51460;BME280;37534;39.772;2.718;2023-02-15T07:29:59;102655.34;;;4.35;100.00
51460;BME280;37534;39.772;2.718;2023-02-15T07:32:29;102677.50;;;4.64;100.00
51460;BME280;37534;39.772;2.718;2023-02-15T07:34:55;102668.50;;;4.48;100.00
51460;BME280;37534;39.772;2.718;2023-02-15T07:37:21;102672.66;;;4.73;100.00
51460;BME280;37534;39.772;2.718;2023-02-15T07:39:46;102666.00;;;4.80;100.00
51460;BME280;37534;39.772;2.718;2023-02-15T07:42:12;102669.72;;;4.89;100.00
51460;BME280;37534;39.772;2.718;2023-02-15T07:44:38;102681.28;;;5.05;100.00
51460;BME280;37534;39.772;2.718;2023-02-15T07:47:03;102669.56;;;5.13;100.00
51460;BME280;37534;39.772;2.718;2023-02-15T07:49:29;102635.34;;;5.10;100.00
51460;BME280;37534;39.772;2.718;2023-02-15T07:51:54;102663.47;;;5.40;100.00
51460;BME280;37534;39.772;2.718;2023-02-15T07:54:20;102648.03;;;5.37;100.00
51460;BME280;37534;39.772;2.718;2023-02-15T07:56:45;102668.16;;;5.57;100.00
51460;BME280;37534;39.772;2.718;2023-02-15T07:59:11;102658.19;;;5.67;100.00
51460;BME280;37534;39.772;2.718;2023-02-15T08:01:38;102669.84;;;5.89;100.00
51460;BME280;37534;39.772;2.718;2023-02-15T08:04:05;102670.16;;;6.02;100.00
51460;BME280;37534;39.772;2.718;2023-02-15T08:06:33;102664.44;;;6.12;100.00
51460;BME280;37534;39.772;2.718;2023-02-15T08:09:00;102651.78;;;6.18;100.00
51460;BME280;37534;39.772;2.718;2023-02-15T08:11:32;102662.56;;;6.43;100.00
51460;BME280;37534;39.772;2.718;2023-02-15T08:16:41;102670.31;;;6.84;100.00
51460;BME280;37534;39.772;2.718;2023-02-15T08:19:24;102672.97;;;6.89;100.00
51460;BME280;37534;39.772;2.718;2023-02-15T08:21:53;102672.44;;;7.03;100.00
51460;BME280;37534;39.772;2.718;2023-02-15T08:24:22;102657.81;;;7.01;100.00
51460;BME280;37534;39.772;2.718;2023-02-15T08:26:49;102658.88;;;7.58;100.00
51460;BME280;37534;39.772;2.718;2023-02-15T08:29:15;102648.97;;;8.96;100.00
51460;BME280;37534;39.772;2.718;2023-02-15T08:31:42;102655.53;;;10.63;100.00
51460;BME280;37534;39.772;2.718;2023-02-15T08:34:09;102667.88;;;12.25;100.00
51460;BME280;37534;39.772;2.718;2023-02-15T08:36:35;102665.59;;;13.56;100.00
51460;BME280;37534;39.772;2.718;2023-02-15T08:39:03;102667.78;;;14.88;87.57
51460;BME280;37534;39.772;2.718;2023-02-15T08:41:35;102669.41;;;14.95;71.56
51460;BME280;37534;39.772;2.718;2023-02-15T08:44:06;102661.38;;;16.22;75.96
51460;BME280;37534;39.772;2.718;2023-02-15T08:46:37;102647.06;;;16.88;67.54
51460;BME280;37534;39.772;2.718;2023-02-15T08:49:04;102653.56;;;16.66;64.04
51460;BME280;37534;39.772;2.718;2023-02-15T08:51:35;102666.47;;;16.73;65.90
51460;BME280;37534;39.772;2.718;2023-02-15T08:54:04;102681.25;;;17.15;68.06
51460;BME280;37534;39.772;2.718;2023-02-15T08:56:33;102665.09;;;17.73;64.63
51460;BME280;37534;39.772;2.718;2023-02-15T08:58:59;102671.03;;;19.89;56.92
51460;BME280;37534;39.772;2.718;2023-02-15T09:01:30;102674.25;;;21.82;50.90
51460;BME280;37534;39.772;2.718;2023-02-15T09:03:58;102680.53;;;23.34;46.25
51460;BME280;37534;39.772;2.718;2023-02-15T09:06:26;102674.66;;;23.64;42.00
51460;BME280;37534;39.772;2.718;2023-02-15T09:08:53;102675.91;;;23.75;40.71
51460;BME280;37534;39.772;2.718;2023-02-15T09:11:27;102658.28;;;23.23;39.66
51460;BME280;37534;39.772;2.718;2023-02-15T09:13:55;102686.22;;;23.08;41.18
51460;BME280;37534;39.772;2.718;2023-02-15T09:16:22;102675.22;;;22.41;42.43
51460;BME280;37534;39.772;2.718;2023-02-15T09:18:49;102668.53;;;21.93;42.69
51460;BME280;37534;39.772;2.718;2023-02-15T09:21:17;102670.50;;;20.05;46.56
51460;BME280;37534;39.772;2.718;2023-02-15T09:23:46;102689.97;;;18.22;56.61
51460;BME280;37534;39.772;2.718;2023-02-15T09:26:15;102672.81;;;18.45;55.23
51460;BME280;37534;39.772;2.718;2023-02-15T09:28:42;102669.34;;;18.13;56.81
51460;BME280;37534;39.772;2.718;2023-02-15T09:31:16;102668.84;;;18.62;58.01
51460;BME280;37534;39.772;2.718;2023-02-15T09:33:44;102689.44;;;20.13;51.51
51460;BME280;37534;39.772;2.718;2023-02-15T09:36:23;102695.44;;;22.18;44.54
51460;BME280;37534;39.772;2.718;2023-02-15T09:38:56;102699.47;;;23.60;41.94
51460;BME280;37534;39.772;2.718;2023-02-15T09:51:27;102707.44;;;24.62;40.45
51460;BME280;37534;39.772;2.718;2023-02-15T09:54:29;102706.72;;;24.92;39.03
51460;BME280;37534;39.772;2.718;2023-02-15T09:57:26;102716.63;;;26.97;35.10
51460;BME280;37534;39.772;2.718;2023-02-15T10:13:38;102709.47;;;30.69;28.50
51460;BME280;37534;39.772;2.718;2023-02-15T10:16:13;102712.47;;;31.31;27.63
51460;BME280;37534;39.772;2.718;2023-02-15T10:19:00;102710.50;;;31.00;27.95
51460;BME280;37534;39.772;2.718;2023-02-15T10:21:39;102699.06;;;32.36;26.47
51460;BME280;37534;39.772;2.718;2023-02-15T10:24:21;102697.59;;;32.22;25.93
51460;BME280;37534;39.772;2.718;2023-02-15T10:26:48;102708.72;;;32.77;25.90
51460;BME280;37534;39.772;2.718;2023-02-15T10:32:38;102705.97;;;33.67;24.38
51460;BME280;37534;39.772;2.718;2023-02-15T10:35:15;102694.75;;;34.28;23.71
51460;BME280;37534;39.772;2.718;2023-02-15T10:37:53;102689.13;;;34.32;23.37
51460;BME280;37534;39.772;2.718;2023-02-15T10:43:49;102693.00;;;33.52;24.39
51460;BME280;37534;39.772;2.718;2023-02-15T10:46:55;102691.59;;;33.68;23.84
51460;BME280;37534;39.772;2.718;2023-02-15T10:55:20;102700.03;;;33.73;23.49
51460;BME280;37534;39.772;2.718;2023-02-15T10:58:11;102696.94;;;34.05;23.91
51460;BME280;37534;39.772;2.718;2023-02-15T11:00:53;102693.09;;;34.27;23.00
51460;BME280;37534;39.772;2.718;2023-02-15T11:06:06;102698.03;;;32.77;24.21
51460;BME280;37534;39.772;2.718;2023-02-15T11:09:08;102698.63;;;32.40;24.27
51460;BME280;37534;39.772;2.718;2023-02-15T11:11:42;102701.28;;;31.04;24.92
51460;BME280;37534;39.772;2.718;2023-02-15T11:14:35;102697.03;;;30.47;25.99
51460;BME280;37534;39.772;2.718;2023-02-15T11:17:10;102687.31;;;28.94;27.13
51460;BME280;37534;39.772;2.718;2023-02-15T11:19:43;102692.00;;;28.15;28.62
51460;BME280;37534;39.772;2.718;2023-02-15T11:22:13;102698.25;;;27.36;29.66
51460;BME280;37534;39.772;2.718;2023-02-15T11:24:45;102693.47;;;27.28;29.98
51460;BME280;37534;39.772;2.718;2023-02-15T11:32:20;102681.69;;;27.32;30.28
51460;BME280;37534;39.772;2.718;2023-02-15T11:34:52;102685.22;;;28.11;29.30
51460;BME280;37534;39.772;2.718;2023-02-15T11:37:27;102679.72;;;28.14;29.25
51460;BME280;37534;39.772;2.718;2023-02-15T11:39:54;102681.69;;;29.10;27.92
51460;BME280;37534;39.772;2.718;2023-02-15T11:42:23;102683.00;;;29.64;27.46
51460;BME280;37534;39.772;2.718;2023-02-15T11:45:06;102680.72;;;29.71;27.38
51460;BME280;37534;39.772;2.718;2023-02-15T11:47:39;102678.09;;;29.93;26.68
51460;BME280;37534;39.772;2.718;2023-02-15T11:50:10;102660.09;;;29.86;26.93
51460;BME280;37534;39.772;2.718;2023-02-15T11:52:37;102666.97;;;27.94;28.54
51460;BME280;37534;39.772;2.718;2023-02-15T11:55:09;102673.38;;;26.55;30.26
51460;BME280;37534;39.772;2.718;2023-02-15T11:57:42;102655.06;;;27.61;29.63
51460;BME280;37534;39.772;2.718;2023-02-15T12:00:20;102667.34;;;28.52;28.69
51460;BME280;37534;39.772;2.718;2023-02-15T12:02:53;102651.94;;;29.29;27.77
51460;BME280;37534;39.772;2.718;2023-02-15T12:05:22;102658.34;;;29.02;27.63
51460;BME280;37534;39.772;2.718;2023-02-15T12:08:00;102643.84;;;27.96;29.10
51460;BME280;37534;39.772;2.718;2023-02-15T12:10:30;102650.59;;;26.94;30.31
51460;BME280;37534;39.772;2.718;2023-02-15T12:13:19;102643.34;;;25.54;31.97
51460;BME280;37534;39.772;2.718;2023-02-15T12:15:47;102645.50;;;24.52;33.50
51460;BME280;37534;39.772;2.718;2023-02-15T12:18:34;102642.25;;;24.15;33.87
51460;BME280;37534;39.772;2.718;2023-02-15T12:21:14;102638.03;;;23.06;35.43
51460;BME280;37534;39.772;2.718;2023-02-15T12:23:51;102630.09;;;22.50;37.18
51460;BME280;37534;39.772;2.718;2023-02-15T12:26:31;102629.84;;;21.76;39.06
51460;BME280;37534;39.772;2.718;2023-02-15T12:29:01;102634.00;;;22.61;38.49
51460;BME280;37534;39.772;2.718;2023-02-15T12:31:46;102630.41;;;23.00;37.82
51460;BME280;37534;39.772;2.718;2023-02-15T12:34:22;102631.72;;;23.10;38.14
51460;BME280;37534;39.772;2.718;2023-02-15T12:36:51;102632.94;;;23.20;37.31
51460;BME280;37534;39.772;2.718;2023-02-15T12:39:26;102622.50;;;22.44;38.45
51460;BME280;37534;39.772;2.718;2023-02-15T12:44:24;102623.34;;;21.21;41.10
51460;BME280;37534;39.772;2.718;2023-02-15T12:47:03;102611.22;;;20.49;42.81
51460;BME280;37534;39.772;2.718;2023-02-15T12:49:36;102610.69;;;20.16;44.70
51460;BME280;37534;39.772;2.718;2023-02-15T12:52:24;102612.00;;;20.04;45.91
51460;BME280;37534;39.772;2.718;2023-02-15T12:54:50;102618.91;;;20.07;46.03
51460;BME280;37534;39.772;2.718;2023-02-15T12:57:26;102625.13;;;20.04;46.46
51460;BME280;37534;39.772;2.718;2023-02-15T12:59:55;102621.94;;;19.94;46.87
51460;BME280;37534;39.772;2.718;2023-02-15T13:02:44;102608.69;;;20.72;46.51
51460;BME280;37534;39.772;2.718;2023-02-15T13:05:35;102613.84;;;22.01;43.34
51460;BME280;37534;39.772;2.718;2023-02-15T13:08:14;102604.63;;;22.11;41.63
51460;BME280;37534;39.772;2.718;2023-02-15T13:13:26;102594.59;;;21.39;43.04
51460;BME280;37534;39.772;2.718;2023-02-15T13:15:56;102593.84;;;20.93;43.90
51460;BME280;37534;39.772;2.718;2023-02-15T13:18:31;102597.72;;;20.37;45.63
51460;BME280;37534;39.772;2.718;2023-02-15T13:21:04;102591.09;;;20.03;46.66
51460;BME280;37534;39.772;2.718;2023-02-15T13:23:31;102588.88;;;19.40;49.14
51460;BME280;37534;39.772;2.718;2023-02-15T13:25:59;102583.50;;;19.43;50.88
51460;BME280;37534;39.772;2.718;2023-02-15T13:28:44;102574.44;;;19.80;51.74
51460;BME280;37534;39.772;2.718;2023-02-15T13:31:19;102574.09;;;20.84;49.53
51460;BME280;37534;39.772;2.718;2023-02-15T13:33:52;102587.34;;;22.45;44.07
51460;BME280;37534;39.772;2.718;2023-02-15T13:39:51;102578.72;;;26.17;36.18
51460;BME280;37534;39.772;2.718;2023-02-15T13:42:24;102582.34;;;26.85;34.14
51460;BME280;37534;39.772;2.718;2023-02-15T14:12:34;102562.50;;;28.20;31.56
51460;BME280;37534;39.772;2.718;2023-02-15T14:15:08;102558.75;;;28.84;30.29
51460;BME280;37534;39.772;2.718;2023-02-15T14:26:04;102549.03;;;25.83;33.89
51460;BME280;37534;39.772;2.718;2023-02-15T14:31:12;102552.75;;;24.43;36.39
51460;BME280;37534;39.772;2.718;2023-02-15T14:33:59;102545.38;;;24.66;36.91
51460;BME280;37534;39.772;2.718;2023-02-15T14:36:27;102540.41;;;24.76;36.29
51460;BME280;37534;39.772;2.718;2023-02-15T14:39:36;102539.44;;;23.64;37.95
51460;BME280;37534;39.772;2.718;2023-02-15T14:45:05;102540.50;;;21.57;42.07
51460;BME280;37534;39.772;2.718;2023-02-15T14:47:42;102536.25;;;21.73;42.84
51460;BME280;37534;39.772;2.718;2023-02-15T14:53:16;102541.50;;;21.32;43.30
51460;BME280;37534;39.772;2.718;2023-02-15T14:55:41;102541.00;;;20.80;44.68
51460;BME280;37534;39.772;2.718;2023-02-15T14:58:11;102530.69;;;20.97;44.89
51460;BME280;37534;39.772;2.718;2023-02-15T15:00:39;102523.38;;;20.83;45.07
51460;BME280;37534;39.772;2.718;2023-02-15T15:03:20;102529.19;;;20.69;46.45
51460;BME280;37534;39.772;2.718;2023-02-15T15:05:51;102522.28;;;20.89;45.91
51460;BME280;37534;39.772;2.718;2023-02-15T15:08:36;102527.34;;;21.57;45.03
51460;BME280;37534;39.772;2.718;2023-02-15T15:13:57;102529.94;;;23.44;41.01
51460;BME280;37534;39.772;2.718;2023-02-15T15:16:30;102528.44;;;24.54;38.26
51460;BME280;37534;39.772;2.718;2023-02-15T15:18:57;102517.28;;;24.95;37.15